createdAt,value
2023-05-28T00:00:11.685Z,15.50
2023-05-28T00:11:00.721Z,15.60
2023-05-28T00:21:36.261Z,15.60
2023-05-28T00:32:11.075Z,15.60
2023-05-28T00:42:47.216Z,15.50
2023-05-28T00:53:21.870Z,15.40
2023-05-28T01:03:56.689Z,15.30
2023-05-28T01:14:31.486Z,15.30
2023-05-28T01:25:12.025Z,15.00
2023-05-28T01:35:47.111Z,15.00
2023-05-28T01:46:23.521Z,15.10
2023-05-28T01:56:59.309Z,15.10
2023-05-28T02:07:34.217Z,15.10
2023-05-28T02:18:11.775Z,14.80
2023-05-28T02:28:47.572Z,14.60
2023-05-28T02:39:23.974Z,14.20
2023-05-28T02:49:58.969Z,13.90
2023-05-28T03:00:35.065Z,13.70
2023-05-28T03:11:09.983Z,13.50
2023-05-28T03:21:45.078Z,13.20
2023-05-28T03:32:21.881Z,13.30
2023-05-28T03:42:56.603Z,13.20
2023-05-28T03:53:31.297Z,13.10
2023-05-28T04:04:07.599Z,13.00
2023-05-28T04:14:42.606Z,12.90
2023-05-28T04:25:20.056Z,13.00
2023-05-28T04:35:55.922Z,13.20
2023-05-28T04:46:31.240Z,13.30
2023-05-28T04:57:06.760Z,13.30
2023-05-28T05:07:42.429Z,13.30
2023-05-28T05:18:17.396Z,13.40
2023-05-28T05:28:52.346Z,13.60
2023-05-28T05:39:27.145Z,13.90
2023-05-28T05:50:16.170Z,14.10
2023-05-28T06:00:53.202Z,14.30
2023-05-28T06:11:28.832Z,14.50
2023-05-28T06:22:03.643Z,14.80
2023-05-28T06:32:38.717Z,15.10
2023-05-28T06:43:13.824Z,15.40
2023-05-28T06:54:06.595Z,15.80
2023-05-28T07:04:42.750Z,16.20
2023-05-28T07:15:23.118Z,16.60
2023-05-28T07:25:59.038Z,17.10
2023-05-28T07:36:38.097Z,18.20
2023-05-28T07:47:15.015Z,19.80
2023-05-28T07:58:08.345Z,21.10
2023-05-28T08:08:43.552Z,21.30
2023-05-28T08:19:20.404Z,22.30
2023-05-28T08:29:57.392Z,23.00
2023-05-28T08:40:36.050Z,23.90
2023-05-28T08:51:11.081Z,23.60
2023-05-28T09:01:51.610Z,23.90
2023-05-28T09:12:29.727Z,24.90
2023-05-28T09:23:10.125Z,25.30
2023-05-28T09:34:06.238Z,26.40
2023-05-28T09:44:43.287Z,26.20
2023-05-28T09:55:19.245Z,26.90
2023-05-28T10:06:00.821Z,27.80
2023-05-28T10:16:36.799Z,28.20
2023-05-28T10:27:20.283Z,28.50
2023-05-28T10:38:09.610Z,28.50
2023-05-28T10:49:07.387Z,28.80
2023-05-28T10:59:54.670Z,29.10
2023-05-28T11:10:32.403Z,29.10
2023-05-28T11:21:10.291Z,29.60
2023-05-28T11:31:44.951Z,29.60
2023-05-28T11:42:20.690Z,29.70
2023-05-28T11:52:56.506Z,30.20
2023-05-28T12:03:31.272Z,30.50
2023-05-28T12:14:13.273Z,30.50
2023-05-28T12:24:52.560Z,30.70
2023-05-28T12:35:27.444Z,30.90
2023-05-28T12:46:02.163Z,31.40
2023-05-28T12:56:37.265Z,31.70
2023-05-28T13:07:13.484Z,31.90
2023-05-28T13:17:48.347Z,30.80
2023-05-28T13:28:24.057Z,31.50
2023-05-28T13:38:58.835Z,31.80
2023-05-28T13:49:33.592Z,31.90
2023-05-28T14:00:11.075Z,31.70
2023-05-28T14:10:46.315Z,31.80
2023-05-28T14:21:21.044Z,31.90
2023-05-28T14:31:56.131Z,31.40
2023-05-28T14:42:31.157Z,31.10
2023-05-28T14:53:05.850Z,30.80
2023-05-28T15:03:41.130Z,30.90
2023-05-28T15:14:16.005Z,30.80
2023-05-28T15:24:51.237Z,30.90
2023-05-28T15:35:28.860Z,30.70
2023-05-28T15:46:04.399Z,30.90
2023-05-28T15:56:38.882Z,30.60
2023-05-28T16:07:14.980Z,30.50
2023-05-28T16:17:52.285Z,30.20
2023-05-28T16:28:27.232Z,30.30
2023-05-28T16:39:01.921Z,29.70
2023-05-28T16:49:37.671Z,29.50
2023-05-28T17:00:21.260Z,28.70
2023-05-28T17:10:55.619Z,27.90
2023-05-28T17:21:30.542Z,27.20
2023-05-28T17:32:05.596Z,26.70
2023-05-28T17:42:40.452Z,26.20
2023-05-28T17:53:17.815Z,25.90
2023-05-28T18:03:53.209Z,25.50
2023-05-28T18:14:31.735Z,25.20
2023-05-28T18:25:07.217Z,24.70
2023-05-28T18:35:41.977Z,24.40
2023-05-28T18:46:16.655Z,24.00
2023-05-28T18:56:51.344Z,23.40
2023-05-28T19:07:26.558Z,22.90
2023-05-28T19:18:01.413Z,22.60
2023-05-28T19:28:37.563Z,22.20
2023-05-28T19:39:12.318Z,21.80
2023-05-28T19:49:47.159Z,21.40
2023-05-28T20:00:22.385Z,21.10
2023-05-28T20:10:57.408Z,20.70
2023-05-28T20:21:32.352Z,20.50
2023-05-28T20:32:07.489Z,20.30
2023-05-28T20:42:42.584Z,20.10
2023-05-28T20:53:17.037Z,19.70
2023-05-28T21:03:52.209Z,19.50
2023-05-28T21:14:26.918Z,19.40
2023-05-28T21:25:01.489Z,19.30
2023-05-28T21:35:36.924Z,19.20
2023-05-28T21:46:11.819Z,19.00
2023-05-28T21:56:46.737Z,18.80
2023-05-28T22:07:21.701Z,18.70
2023-05-28T22:17:56.763Z,18.40
2023-05-28T22:28:31.637Z,18.30
2023-05-28T22:39:06.481Z,18.10
2023-05-28T22:49:43.318Z,18.10
2023-05-28T23:00:21.658Z,18.00
2023-05-28T23:10:56.424Z,17.80
2023-05-28T23:21:32.892Z,17.80
2023-05-28T23:32:08.490Z,17.70
2023-05-28T23:42:43.211Z,17.40
2023-05-28T23:53:18.070Z,17.30
